createdAt,value
2019-04-20T00:00:17.324Z,5.1
2019-04-20T00:05:17.264Z,4.3
2019-04-20T00:10:23.024Z,5.2
2019-04-20T00:15:17.794Z,4.3
2019-04-20T00:20:29.079Z,5
2019-04-20T00:25:23.712Z,2.9
2019-04-20T00:31:05.339Z,5
2019-04-20T00:35:19.013Z,5.5
2019-04-20T00:40:17.374Z,5.4
2019-04-20T00:45:27.146Z,5.6
2019-04-20T00:50:55.132Z,4.9
2019-04-20T00:55:23.117Z,2
2019-04-20T01:01:03.641Z,4.9
2019-04-20T01:06:06.128Z,3.9
2019-04-20T01:10:17.747Z,4.7
2019-04-20T01:15:41.120Z,5.1
2019-04-20T01:20:17.525Z,3.7
2019-04-20T01:25:30.599Z,4.8
2019-04-20T01:30:35.703Z,5.2
2019-04-20T01:35:48.712Z,3.1
2019-04-20T01:40:17.288Z,4.6
2019-04-20T01:45:27.809Z,2.6
2019-04-20T01:50:28.324Z,5.1
2019-04-20T01:55:38.463Z,5.1
2019-04-20T02:00:30.648Z,5.1
2019-04-20T02:05:29.374Z,4.9
2019-04-20T02:10:21.738Z,4.7
2019-04-20T02:15:35.105Z,4.9
2019-04-20T02:20:59.510Z,5.1
2019-04-20T02:25:17.005Z,4.8
2019-04-20T02:31:04.085Z,5.1
2019-04-20T02:36:40.019Z,5.3
2019-04-20T02:41:27.363Z,5.2
2019-04-20T02:46:14.569Z,2.7
2019-04-20T02:51:32.806Z,4.9
2019-04-20T02:56:31.457Z,3.1
2019-04-20T03:01:09.479Z,5.3
2019-04-20T03:05:41.106Z,4.9
2019-04-20T03:11:14.486Z,5.6
2019-04-20T03:15:59.113Z,5.3
2019-04-20T03:20:51.759Z,6.1
2019-04-20T03:26:04.907Z,2.1
2019-04-20T03:31:19.978Z,6.1
2019-04-20T03:36:11.503Z,6.4
2019-04-20T03:45:23.044Z,5.6
2019-04-20T03:51:06.899Z,6.7
2019-04-20T03:55:56.229Z,5.7
2019-04-20T04:00:54.133Z,2.5
2019-04-20T04:05:44.229Z,5.9
2019-04-20T04:10:47.531Z,6.3
2019-04-20T04:15:17.387Z,5.7
2019-04-20T04:20:22.657Z,5.8
2019-04-20T04:25:53.013Z,5.7
2019-04-20T04:30:54.359Z,2.3
2019-04-20T04:41:13.306Z,2.5
2019-04-20T04:45:23.657Z,3.5
2019-04-20T04:50:25.152Z,5.8
2019-04-20T04:55:40.106Z,6
2019-04-20T05:00:26.518Z,2.3
2019-04-20T05:06:00.292Z,2
2019-04-20T05:10:20.642Z,2.6
2019-04-20T05:15:52.330Z,2.8
2019-04-20T05:21:04.182Z,4.1
2019-04-20T05:30:18.254Z,5.6
2019-04-20T05:36:00.760Z,6.1
2019-04-20T05:41:06.906Z,5.3
2019-04-20T05:45:44.676Z,5.4
2019-04-20T05:50:52.685Z,5.8
2019-04-20T05:55:59.068Z,5.8
2019-04-20T06:01:11.953Z,3.2
2019-04-20T06:06:03.081Z,5.4
2019-04-20T06:10:54.878Z,3
2019-04-20T06:15:52.936Z,3.6
2019-04-20T06:21:02.035Z,5.3
2019-04-20T06:26:18.998Z,2.5
2019-04-20T06:30:46.773Z,5.7
2019-04-20T06:36:27.314Z,2.4
2019-04-20T06:41:20.919Z,6.1
2019-04-20T06:46:03.040Z,5.4
2019-04-20T06:50:53.632Z,5.9
2019-04-20T06:56:09.416Z,5.9
2019-04-20T07:00:46.252Z,5.1
2019-04-20T07:06:20.689Z,5.5
2019-04-20T07:10:57.679Z,1.5
2019-04-20T07:15:46.109Z,5.3
2019-04-20T07:21:11.545Z,5.1
2019-04-20T07:26:01.707Z,4.8
2019-04-20T07:31:06.606Z,4.9
2019-04-20T07:35:55.748Z,2.3
2019-04-20T07:40:58.576Z,4.7
2019-04-20T07:45:59.980Z,4.6
2019-04-20T07:50:44.436Z,4.6
2019-04-20T07:56:04.369Z,4.2
2019-04-20T08:01:21.078Z,2
2019-04-20T08:05:42.674Z,4.4
2019-04-20T08:16:00.309Z,4.4
2019-04-20T08:20:57.469Z,1.4
2019-04-20T08:25:45.325Z,3.8
2019-04-20T08:30:51.110Z,3.7
2019-04-20T08:36:10.581Z,3.4
2019-04-20T08:41:02.400Z,3.5
2019-04-20T08:46:05.092Z,3.4
2019-04-20T08:50:57.033Z,2
2019-04-20T08:55:48.643Z,3.7
2019-04-20T09:00:35.650Z,3.9
2019-04-20T09:05:42.237Z,3.3
2019-04-20T09:10:59.655Z,3.2
2019-04-20T09:15:17.320Z,2.9
2019-04-20T09:20:43.389Z,3
2019-04-20T09:30:47.613Z,3
2019-04-20T09:35:57.540Z,1
2019-04-20T09:40:49.282Z,2.8
2019-04-20T09:45:35.824Z,3.6
2019-04-20T09:50:57.384Z,1.4
2019-04-20T09:55:39.360Z,3.3
2019-04-20T10:00:53.771Z,1.4
2019-04-20T10:05:17.989Z,4.7
2019-04-20T10:10:33.818Z,4
2019-04-20T10:15:23.353Z,7.4
2019-04-20T10:20:30.893Z,4.9
2019-04-20T10:25:18.558Z,6.9
2019-04-20T10:30:18.781Z,7
2019-04-20T10:35:19.057Z,5.2
2019-04-20T10:40:43.175Z,4.1
2019-04-20T10:45:17.319Z,5.2
2019-04-20T10:50:17.257Z,4.3
2019-04-20T10:55:18.580Z,4.1
2019-04-20T11:00:17.808Z,1.9
2019-04-20T11:05:17.738Z,4
2019-04-20T11:10:27.147Z,4.2
2019-04-20T11:15:18.819Z,4
2019-04-20T11:20:17.538Z,3.6
2019-04-20T11:25:17.448Z,3.9
2019-04-20T11:30:18.467Z,3.7
2019-04-20T11:35:32.581Z,4
2019-04-20T11:40:18.816Z,1.1
2019-04-20T11:45:18.170Z,1.7
2019-04-20T11:50:18.086Z,2.2
2019-04-20T11:55:18.368Z,1
2019-04-20T12:00:17.535Z,0.7
2019-04-20T12:05:32.283Z,0.7
2019-04-20T12:10:24.055Z,2.3
2019-04-20T12:15:17.139Z,2.9
2019-04-20T12:20:18.385Z,1.3
2019-04-20T12:25:18.529Z,1.1
2019-04-20T12:30:17.820Z,1.2
2019-04-20T12:35:18.386Z,1.1
2019-04-20T12:40:17.830Z,0.6
2019-04-20T12:45:17.947Z,2.5
2019-04-20T12:50:17.647Z,1
2019-04-20T12:55:19.018Z,0.7
2019-04-20T13:00:17.666Z,1.5
2019-04-20T13:05:17.816Z,0.8
2019-04-20T13:10:18.108Z,1.7
2019-04-20T13:15:18.427Z,1.3
2019-04-20T13:20:18.518Z,1.6
2019-04-20T13:25:17.396Z,1.8
2019-04-20T13:30:17.335Z,1.8
2019-04-20T13:35:18.538Z,0.6
2019-04-20T13:40:17.949Z,1.8
2019-04-20T13:45:17.316Z,1.2
2019-04-20T13:50:18.248Z,0.5
2019-04-20T13:55:17.259Z,0.9
2019-04-20T14:00:18.117Z,1.1
2019-04-20T14:05:17.189Z,1
2019-04-20T14:10:17.757Z,1.1
2019-04-20T14:15:17.655Z,1.3
2019-04-20T14:20:21.987Z,2.5
2019-04-20T14:25:16.966Z,2.2
2019-04-20T14:30:17.397Z,2.7
2019-04-20T14:35:17.267Z,2.6
2019-04-20T14:40:18.887Z,1.6
2019-04-20T14:45:18.835Z,2.3
2019-04-20T14:50:18.157Z,1.9
2019-04-20T14:55:19.486Z,2.7
2019-04-20T15:00:17.605Z,3.7
2019-04-20T15:05:17.470Z,0.9
2019-04-20T15:10:18.937Z,1.5
2019-04-20T15:15:16.947Z,1.6
2019-04-20T15:20:17.505Z,4.9
2019-04-20T15:25:18.059Z,1.9
2019-04-20T15:30:18.668Z,1.6
2019-04-20T15:35:21.055Z,3.8
2019-04-20T15:40:19.624Z,8.5
2019-04-20T15:45:21.088Z,3.6
2019-04-20T15:50:18.396Z,5.6
2019-04-20T15:55:35.412Z,2.5
2019-04-20T16:00:18.695Z,4.9
2019-04-20T16:05:33.647Z,3.9
2019-04-20T16:10:48.914Z,2.6
2019-04-20T16:15:20.394Z,0.8
2019-04-20T16:20:23.873Z,1.4
2019-04-20T16:25:21.385Z,1
2019-04-20T16:31:20.603Z,2.7
2019-04-20T16:35:48.156Z,2
2019-04-20T16:40:17.965Z,3.5
2019-04-20T16:45:17.593Z,1.5
2019-04-20T16:50:19.248Z,1.9
2019-04-20T16:55:18.746Z,1.2
2019-04-20T17:00:23.524Z,1.4
2019-04-20T17:35:51.123Z,3.7
2019-04-20T17:47:46.781Z,5.4
2019-04-20T17:55:51.728Z,4
2019-04-20T18:26:04.320Z,2.9
2019-04-20T18:30:43.486Z,2.4
2019-04-20T18:36:32.635Z,3
2019-04-20T18:40:43.174Z,5.5
2019-04-20T19:40:56.383Z,6.1
2019-04-20T19:52:18.819Z,15.1
2019-04-20T20:01:21.999Z,14
2019-04-20T20:21:07.155Z,12.9
2019-04-20T20:27:05.856Z,7.5
2019-04-20T20:52:16.883Z,22
2019-04-20T21:01:12.768Z,32.8
2019-04-20T21:15:30.205Z,21.4
2019-04-20T21:27:28.079Z,30
2019-04-20T21:31:23.460Z,59.9
2019-04-20T21:35:53.774Z,43.1
2019-04-20T21:40:48.214Z,83.8
2019-04-20T21:46:10.178Z,46.7
2019-04-20T21:51:01.172Z,90.7
2019-04-20T21:57:58.808Z,93.8
2019-04-20T22:01:02.047Z,84.3
2019-04-20T22:06:58.317Z,88.1
2019-04-20T22:10:47.006Z,89.3
2019-04-20T22:15:37.731Z,58.7
2019-04-20T22:21:29.191Z,76.2
2019-04-20T22:26:11.744Z,73
2019-04-20T22:35:26.036Z,63.6
2019-04-20T22:40:52.197Z,60.9
2019-04-20T22:47:43.430Z,37.6
2019-04-20T22:51:19.410Z,57.2
2019-04-20T22:56:43.122Z,30.5
2019-04-20T23:00:54.006Z,51.7
2019-04-20T23:05:56.486Z,29.8
2019-04-20T23:10:49.497Z,47
2019-04-20T23:15:53.023Z,31.8
2019-04-20T23:25:24.742Z,43.2
2019-04-20T23:35:48.628Z,39
2019-04-20T23:40:43.669Z,23.1
2019-04-20T23:45:59.150Z,37.3
2019-04-20T23:52:59.187Z,36.3
2019-04-20T23:56:37.555Z,34.5
